Terminal Aerodrome Forecast
Issued by NWS

Home | Current Version | Previous Version | Graphics & Text | Print | Product List | Glossary Off
Versions: 1 2 3 4 5 6 7 8 9 10 11 12 13 14

000
FTUS43 KDDC 112206 AAA
TAFHYS
TAF AMD
KHYS 112206Z 1122/1218 35022G29KT P6SM BKN200
     FM120000 35014KT P6SM FEW250
     FM120500 34009KT P6SM FEW250=

USA.gov is the U.S. government's official web portal to all federal, state and local government web resources and services.